Challenge Cours la Province !

Le Jogging-Trail De La Chartreuse à Liège (8.50 km)

dimanche 02 décembre 2018

Vous pouvez trouver Le classement original sur : www.otopservices.be  
CHALLENGE COURS LA PROVINCE
LE JOGGING-TRAIL DE LA CHARTREUSE - LIÈGE
DISTANCE : 8.50 km
dimanche 02 décembre 2018
 
Place dos NOM Catégorie Pl/cat temps temps/km Vitesse
01:00:00              
1 261 JOAKIM TERRITO SENIOR H 1 00:33:20 03:55 15.30
2 208 PASCAL VAN MARCKE VÉTÉRAN 2 1 00:35:24 04:10 14.41
3 32 DAVID FRISON VETERAN 1 1 00:35:34 04:11 14.34
4 330 REGINALD DEHIN SENIOR H 2 00:36:32 04:18 13.96
5 218 GEOFFREY GILLET SENIOR H 3 00:36:33 04:18 13.95
6 331 ARNAUD RENARD SENIOR H 4 00:36:38 04:19 13.92
7 82 OLIVIER HEMMER VETERAN 1 2 00:36:40 04:19 13.91
8 397 BENJA TELLER SENIOR H 5 00:36:45 04:19 13.88
9 396 REN TELLER SENIOR H 6 00:36:48 04:20 13.86
10 374 LOANN LE TALLEC SENIOR H 7 00:36:54 04:20 13.82
11 265 FLORIAN FABRE SENIOR H 8 00:37:40 04:26 13.54
12 393 NICOLAS YAM MICHEL SENIOR H 9 00:37:51 04:27 13.47
13 192 ANTONIO PIRARD SENIOR H 10 00:38:10 04:29 13.36
14 211 ROGER HAWAUX VÉTÉRAN 2 2 00:38:36 04:32 13.21
15 2 THOMAS SULEAU SENIOR H 11 00:38:36 04:32 13.21
16 324 ERIC JURDAN VETERAN 1 3 00:38:38 04:33 13.20
17 326 VALERY LAMBENNE VETERAN 1 4 00:38:43 04:33 13.17
18 132 MARC THIRION VÉTÉRAN 2 3 00:38:48 04:34 13.14
19 234 CHRISTOPHE VITELLO SENIOR H 12 00:38:59 04:35 13.08
20 230 JONATHAN PEREIRA TEIJELO SENIOR H 13 00:39:11 04:37 13.02
21 136 ALAIN MARCHAL VÉTÉRAN 2 4 00:39:16 04:37 12.99
22 78 PHILIPPE ROI VÉTÉRAN 2 5 00:39:18 04:37 12.98
23 46 YVES GARIN VETERAN 1 5 00:39:20 04:38 12.97
24 343 AMADEO CORTES LECLOU ESPOIR H 1 00:39:29 04:39 12.92
25 232 IRENE TOSI SENIOR D 1 00:39:55 04:42 12.78
26 4 DOMINIQUE GILLET VÉTÉRAN 2 6 00:40:15 04:44 12.67
27 144 BENOIT BAUMANS VETERAN 1 6 00:40:15 04:44 12.67
28 247 ERIC PATRIARCA SENIOR H 14 00:40:17 04:44 12.66
29 552 BENOIT PRINCIPATO SENIOR H 15 00:40:21 04:45 12.64
30 166 VINCENT DEGUELDRE SENIOR H 16 00:40:26 04:45 12.61
31 206 JOHAN GRIFNEE SENIOR H 17 00:40:35 04:46 12.57
32 25 RENAUD SCHUTZ VETERAN 1 7 00:40:41 04:47 12.54
33 551 RAPHAEL VANBRABANT VETERAN 1 8 00:40:47 04:48 12.51
34 241 FREDERIC SEVRIN SENIOR H 18 00:40:58 04:49 12.45
35 321 RACHID BOUKILI SENIOR H 19 00:41:01 04:50 12.43
36 111 CHILDERIC RENARD VETERAN 1 9 00:41:19 04:52 12.34
37 154 VINCENT DEBIOLLE VÉTÉRAN 2 7 00:41:24 04:52 12.32
38 83 THIERRY SONTAG VETERAN 1 10 00:41:30 04:53 12.29
39 240 PIERRE SEVRIN SENIOR H 20 00:41:50 04:55 12.19
40 219 JEAN-MARC DANIELS VÉTÉRAN 2 8 00:41:50 04:55 12.19
41 386 LAURENT BONHOMME SENIOR H 21 00:41:51 04:55 12.19
42 163 MICHEL BERTRAND VETERAN 3 1 00:41:55 04:56 12.17
43 227 ROSARIO LOFORTE VETERAN 1 11 00:41:56 04:56 12.16
44 176 LAURENT KNAPEN VETERAN 3 2 00:42:08 04:57 12.10
45 118 YVES HANQUET VÉTÉRAN 2 9 00:42:11 04:58 12.09
46 246 ALAIN DEJACE VÉTÉRAN 2 10 00:42:24 04:59 12.03
47 228 LAURENT TANS SENIOR H 22 00:42:27 05:00 12.01
48 72 NICOLAS BYNENS VETERAN 3 3 00:42:40 05:01 11.95
49 117 OLIVIER GAILLET SENIOR H 23 00:42:49 05:02 11.91
50 19 BEATRICE KEVELAER AINÉE 1 1 00:42:50 05:02 11.91
51 339 THOMAS COP SENIOR H 24 00:42:58 05:03 11.87
52 220 KARL BOURGOIN-SIX ESPOIR H 2 00:43:06 05:04 11.83
53 161 MICHEL VANNIEUWENHUYSEN VETERAN 1 12 00:43:09 05:05 11.82
54 162 THOMAS HEINEN SENIOR H 25 00:43:09 05:05 11.82
55 107 MAUD GUILLIAMS SENIOR D 2 00:43:15 05:05 11.79
56 348 JEAN WEERTS VETERAN 1 13 00:43:16 05:05 11.79
57 80 MICHEL JEUKENS VETERAN 1 14 00:43:27 05:07 11.74
58 229 CHRISTIAN AKKERMANS VÉTÉRAN 2 11 00:43:36 05:08 11.70
59 141 PAUL RIHON VETERAN 3 4 00:43:40 05:08 11.68
60 336 ABDALLAH OUAHID VÉTÉRAN 2 12 00:43:49 05:09 11.64
61 108 LUCIO PROFETA SENIOR H 26 00:43:55 05:10 11.61
62 68 JEAN-FRANCOIS DESADELEER VETERAN 1 15 00:44:14 05:12 11.53
63 14 CARMELO PILLITTERI VÉTÉRAN 2 13 00:44:15 05:12 11.53
64 248 VINCENT POLLET VETERAN 1 16 00:44:17 05:13 11.52
65 244 LEON-MARIE DUPUIS VÉTÉRAN 2 14 00:44:20 05:13 11.50
66 101 PHILIPPE GHEURY VETERAN 1 17 00:44:22 05:13 11.50
67 368 ARNAUD SPRIMONT SENIOR H 27 00:44:38 05:15 11.43
68 355 JEAN-GUILLAUME MALCHAIR SENIOR H 28 00:44:38 05:15 11.43
69 235 JEREMY JOLIET SENIOR H 29 00:44:42 05:16 11.41
70 129 DIDIER DENDAL VÉTÉRAN 2 15 00:44:51 05:17 11.37
71 160 ANGEL FERNANDEZ VÉTÉRAN 2 16 00:44:58 05:17 11.34
72 329 LAURENT SCHEFFERT SENIOR H 30 00:45:02 05:18 11.32
73 61 FREDERIC DE CECCO VETERAN 1 18 00:45:09 05:19 11.30
74 547 MICHAEL VAN RYMENAM SENIOR H 31 00:45:32 05:21 11.20
75 322 JEF WARNY VETERAN 1 19 00:45:45 05:23 11.15
76 385 LAURENCE MARQUET SENIOR H 32 00:45:54 05:24 11.11
77 359 JEAN-MARC CUCCURU VÉTÉRAN 2 17 00:45:56 05:24 11.10
78 376 ERIC STAINIER VÉTÉRAN 2 18 00:45:58 05:24 11.09
79 319 PATRICK DELSUPEXHE VÉTÉRAN 2 19 00:46:00 05:25 11.09
80 399 ALEXANDRE MAINZ SENIOR H 33 00:46:07 05:26 11.06
81 395 JEAN-PHILIPPE SOMJA SENIOR H 34 00:46:13 05:26 11.03
82 125 DOMENICO DI VITO VETERAN 3 5 00:46:16 05:27 11.02
83 76 YVES LOOYENS VETERAN 1 20 00:46:21 05:27 11.00
84 114 BENOIT VAN HESPEN VÉTÉRAN 2 20 00:46:27 05:28 10.98
85 36 JULIAN VERA MORALES VETERAN 1 21 00:46:32 05:28 10.96
86 550 LIESBETH VANNESTE SENIOR D 3 00:46:45 05:30 10.91
87 548 JEAN-LUC LETELLIER VÉTÉRAN 2 21 00:46:49 05:30 10.89
88 357 ROGER VAN LANGEVELD VETERAN 3 6 00:46:51 05:31 10.89
89 222 FRANCOISE PISCART AINÉE 1 2 00:46:53 05:31 10.88
90 372 LUCIEN COLLARD VETERAN 3 7 00:46:57 05:31 10.86
91 325 AMERIGO OLIVIERI VETERAN 3 8 00:47:05 05:32 10.83
92 373 MICHAEL LOGNARD SENIOR H 35 00:47:08 05:33 10.82
93 205 GUY CLERDENT VETERAN 1 22 00:47:13 05:33 10.80
94 159 EUDORE FAFCHAMPS VÉTÉRAN 2 22 00:47:15 05:34 10.79
95 62 JONATHAN DE CECCO SENIOR H 36 00:47:30 05:35 10.74
96 332 GIOACHINO LA COLA VÉTÉRAN 2 23 00:47:32 05:36 10.73
97 364 ALEXANDRE MARCHAND SENIOR H 37 00:47:40 05:36 10.70
98 95 ANNE MATAGNE AINÉE 1 3 00:47:54 05:38 10.65
99 340 CHRISTOPHE GALERE VETERAN 1 23 00:48:06 05:40 10.60
100 29 HUGO RADDOUX VETERAN 3 9 00:48:08 05:40 10.60
101 239 KEVIN POTARGENT SENIOR H 38 00:48:09 05:40 10.59
102 52 MATTHIEU GAUTHY SENIOR H 39 00:48:12 05:40 10.58
103 49 VALÉRIE DURELLO SENIOR D 4 00:48:17 05:41 10.56
104 58 CHRISTIAN VANDEVENNE VETERAN 3 10 00:48:23 05:42 10.54
105 50 MICHEL BREVERS VETERAN 1 24 00:48:26 05:42 10.53
106 225 CHRISTOPHE GARROY VETERAN 1 25 00:48:29 05:42 10.52
107 92 CARINE MUNAUT AINÉE 2 1 00:48:31 05:42 10.51
108 375 CELINE CORDEWENER SENIOR D 5 00:48:39 05:43 10.48
109 195 FABIAN BALDO VÉTÉRAN 2 24 00:48:47 05:44 10.45
110 341 MICHEL VOGELEER VÉTÉRAN 2 25 00:48:53 05:45 10.43
111 360 STEPHANE LESECQUE VÉTÉRAN 2 26 00:49:18 05:48 10.34
112 20 OLIVIER DETAILLE VETERAN 1 26 00:49:28 05:49 10.31
113 115 JEAN-LOU LANGE VÉTÉRAN 2 27 00:49:40 05:51 10.27
114 266 TONY CICCARELLA VETERAN 1 27 00:49:53 05:52 10.22
115 260 JOEL DARCIS SENIOR H 40 00:49:55 05:52 10.22
116 116 MARIE-CÉLINE LOUWETTE AINÉE 2 2 00:49:58 05:53 10.21
117 224 YVES TERRADE VETERAN 1 28 00:50:20 05:55 10.13
118 238 GERALDINE COLLINET SENIOR D 6 00:50:23 05:56 10.12
119 170 MICHAEL DE CECCO VETERAN 1 29 00:50:26 05:56 10.11
120 168 LUDOVIC DASSY SENIOR H 41 00:50:32 05:57 10.09
121 134 HERVÉ HANUSSEK SENIOR H 42 00:50:35 05:57 10.08
122 369 JEAN DEWIL VÉTÉRAN 2 28 00:50:36 05:57 10.08
123 151 PAULINE MULLENS ESPOIR D 1 00:50:38 05:57 10.07
124 152 PHILIPPE MASSET VETERAN 1 30 00:50:38 05:57 10.07
125 158 MARC BOUCHE VÉTÉRAN 2 29 00:50:47 05:58 10.04
126 549 FRANCOIS PALOMO VÉTÉRAN 2 30 00:51:05 06:01 9.98
127 140 ALAIN TOMBEUR VÉTÉRAN 2 31 00:51:12 06:01 9.96
128 250 ISABELLE VRANKEN AINÉE 1 4 00:51:15 06:02 9.95
129 361 LUC GOBLET VETERAN 1 31 00:51:30 06:04 9.90
130 270 CLEMENT LEMINEUR SENIOR H 43 00:51:34 06:04 9.89
131 382 ALAIN SADZOT VÉTÉRAN 2 32 00:51:42 06:05 9.86
132 217 MICHEL HACCOUR VÉTÉRAN 2 33 00:51:45 06:05 9.86
133 71 FLORENCE SOMJA SENIOR D 7 00:51:51 06:06 9.84
134 45 SERGE DOUIN VÉTÉRAN 2 34 00:51:59 06:07 9.81
135 378 GERARD DUPLOUY VÉTÉRAN 2 35 00:52:07 06:08 9.79
136 253 JATINDER SINGH VETERAN 1 32 00:52:13 06:09 9.77
137 546 FABIAN DODET VETERAN 1 33 00:52:16 06:09 9.76
138 347 MAXINE BAIVIER SENIOR D 8 00:52:25 06:10 9.73
139 346 STEVEN DE GROOTE VETERAN 1 34 00:52:28 06:10 9.72
140 63 CAROLINE FEKETE AINÉE 2 3 00:52:38 06:12 9.69
141 251 XAVIER DELNOPZ SENIOR H 44 00:52:38 06:12 9.69
142 106 YVES LUCAS SENIOR H 45 00:52:39 06:12 9.69
143 358 CHAFIK OULHADJ VETERAN 1 35 00:52:55 06:14 9.64
144 120 LUCIEN ARNOULD VETERAN 1 36 00:53:05 06:15 9.61
145 84 YANNICK TASQUIN SENIOR H 46 00:53:10 06:15 9.59
146 335 THIERRY HAMAIDE VÉTÉRAN 2 36 00:53:25 06:17 9.55
147 85 SOPHIE DETHIER SENIOR D 9 00:53:33 06:18 9.52
148 269 JEAN-PASCAL ANCION VÉTÉRAN 2 37 00:53:43 06:19 9.49
149 183 DAVID CRANINX SENIOR H 47 00:53:50 06:20 9.47
150 544 PATRICK FORCONI VÉTÉRAN 2 38 00:53:51 06:20 9.47
151 127 ERIC MARTIN VÉTÉRAN 2 39 00:53:54 06:20 9.46
152 54 VALÉRIE DELCOMMINETTE SENIOR D 10 00:53:55 06:21 9.46
153 13 JACQUELINE COURTIN AINÉE 2 4 00:53:58 06:21 9.45
154 42 FREDERIQUE DEPOUHON AINÉE 1 5 00:54:39 06:26 9.33
155 128 BERNARD FERNANDEZ HERRERA VETERAN 1 37 00:54:53 06:27 9.29
156 121 JOSIANE STIERNON AINÉE 3 1 00:55:03 06:29 9.26
157 320 DELPHINE CLOSSE AINÉE 2 5 00:55:07 06:29 9.25
158 210 VINCIANE HENON AINÉE 2 6 00:56:21 06:38 9.05
159 328 GENEVIEVE NIZET AINÉE 2 7 00:56:22 06:38 9.05
160 221 ANNABELLE SCHEUREN SENIOR D 11 00:56:27 06:38 9.03
161 142 FREDDY HOUNJE VETERAN 3 11 00:56:36 06:40 9.01
162 400 MURIEL SARLETTE SENIOR D 12 00:56:52 06:41 8.97
163 185 MICHEL CUSTERS VÉTÉRAN 2 40 00:57:02 06:43 8.94
164 323 AURELIE HERKENNE SENIOR D 13 00:57:08 06:43 8.93
165 263 RUDY SCALCO SENIOR H 48 00:57:22 06:45 8.89
166 135 JULIEN MARIQUE SENIOR H 49 00:57:26 06:45 8.88
167 345 CHRISTINE RENARD AINÉE 1 6 00:57:37 06:47 8.85
168 262 PIERRE LUCAS VETERAN 3 12 00:57:39 06:47 8.85
169 344 SOLÈNE CORTES LECLOU ESPOIR D 2 00:57:52 06:48 8.81
170 171 ZOUHAIR MOUTI VETERAN 1 38 00:57:53 06:49 8.81
171 207 CHRISTIAN GOOSSE VETERAN 3 13 00:57:55 06:49 8.81
172 147 JEAN-PIERRE MASSON VETERAN 3 14 00:57:55 06:49 8.81
173 545 HENRY HARDY VÉTÉRAN 4 1 00:57:59 06:49 8.80
174 24 JOLAN DELVAUX SENIOR H 50 00:58:10 06:51 8.77
175 65 MARGUERITE OLIVIER AINÉE 2 8 00:58:24 06:52 8.73
176 122 BENEDICTE LAURENT AINÉE 1 7 00:58:32 06:53 8.71
177 387 GEOFFREY PERPINIEN VETERAN 1 39 00:58:32 06:53 8.71
178 34 AURELIE LORCE SENIOR D 14 00:58:38 06:54 8.70
179 350 VIRGINIE MONJOIE SENIOR D 15 00:58:40 06:54 8.69
180 33 LUC POLLARD VÉTÉRAN 2 41 00:58:51 06:55 8.67
181 380 SEBASTIEN MICHOTTE VETERAN 1 40 00:58:57 06:56 8.65
182 379 MICHAEL DUYSINX VETERAN 1 41 00:58:57 06:56 8.65
183 342 JUAN CORTES LECLOU SENIOR H 51 00:59:03 06:57 8.64
184 256 CHRISTELLE HICK AINÉE 1 8 00:59:26 07:00 8.58
185 349 ALAIN MISSA VETERAN 3 15 00:59:41 07:01 8.55
186 366 MARIE MASSON SENIOR D 16 00:59:49 07:02 8.53
187 73 LAURENCE RYSKA SENIOR D 17 00:59:58 07:03 8.50
188 215 SYLVIE TOMBALLE AINÉE 1 9 00:59:58 07:03 8.50
189 264 FRANCOIS DRION SENIOR H 52 00:59:59 07:03 8.50
190 268 PHILIPPE VANDERSCHUEREN VETERAN 1 42 01:00:00 07:04 8.50
191 28 PHILIPPE FOURNY VETERAN 3 16 01:00:06 07:04 8.49
192 209 JEAN-PIERRE VERCRUYSSE VETERAN 3 17 01:00:23 07:06 8.45
193 89 BÉATRICE PETITJEAN AINÉE 2 9 01:00:27 07:07 8.44
194 351 PASCALE DE PRINS AINÉE 2 10 01:01:00 07:11 8.36
195 43 LUC DETAILLE VÉTÉRAN 2 42 01:01:13 07:12 8.33
196 55 HELENE THIRY SENIOR D 18 01:01:33 07:14 8.29
197 365 PAULINE MARCHAND ESPOIR D 3 01:01:49 07:16 8.25
198 381 FABIAN GROSCH VETERAN 1 43 01:01:56 07:17 8.23
199 384 CECILE MATERNE SENIOR D 19 01:02:13 07:19 8.20
200 259 ANNE FABRY AINÉE 2 11 01:02:36 07:22 8.15
201 87 ANDRÉ WASSON VÉTÉRAN 2 43 01:02:43 07:23 8.13
202 252 FRANCE DUVIVIER AINÉE 1 10 01:02:51 07:24 8.11
203 190 CAROLINE DUMONT SENIOR D 20 01:03:55 07:31 7.98
204 391 LAURENT BRUYERE SENIOR H 53 01:03:59 07:32 7.97
205 186 CHRISTOPHE MEYLEMANS SENIOR H 54 01:03:59 07:32 7.97
206 377 CHRISTOPHE GILLET VETERAN 1 44 01:04:19 07:34 7.93
207 57 PHILIPPE THIRY VÉTÉRAN 2 44 01:04:20 07:34 7.93
208 389 AUDE BERNARD SENIOR D 21 01:04:36 07:36 7.89
209 17 PETRA BRAUN AINÉE 2 12 01:04:41 07:37 7.88
210 23 ROXANNE REYSER SENIOR D 22 01:04:43 07:37 7.88
211 370 CHRISTOPHE DRION VETERAN 1 45 01:05:15 07:41 7.82
212 104 GREGORY BAAR SENIOR H 55 01:05:52 07:45 7.74
213 167 JONATHAN JORIS SENIOR H 56 01:05:57 07:46 7.73
214 237 LUC KWANTEN VÉTÉRAN 2 45 01:06:20 07:48 7.69
215 16 SERGE KIRCHNER VÉTÉRAN 2 46 01:06:34 07:50 7.66
216 187 JOSEPH MEYLEMANS VETERAN 3 18 01:06:47 07:51 7.64
217 48 MICHEL BABE VÉTÉRAN 2 47 01:07:06 07:54 7.60
218 40 FABIENNE PIETEUR AINÉE 2 13 01:07:42 07:58 7.53
219 26 VIRGINIE CRANINX SENIOR D 23 01:08:16 08:02 7.47
220 169 CRISTELLE LEMAY AINÉE 1 11 01:08:20 08:02 7.46
221 179 DOMINIQUE NIJS AINÉE 3 2 01:08:33 08:04 7.44
222 3 ANNE LENTZ AINÉE 2 14 01:09:28 08:10 7.34
223 10 HENRI BREULHEID VETERAN 1 46 01:10:45 08:19 7.21
224 367 BRIGITTE DELOBBE AINÉE 2 15 01:11:04 08:22 7.18
225 109 VERONIQUE GRENSON AINÉE 2 16 01:11:09 08:22 7.17
226 383 CLAUDIA BINACCHI SENIOR D 24 01:11:09 08:22 7.17
227 51 VERONIQUE MEYERS AINÉE 1 12 01:11:09 08:22 7.17
228 30 JACQUELINE DE SMEDT AINÉE 2 17 01:25:53 10:06 5.94
229 182 JOELLE SCHMETZ AINÉE 2 18 01:25:54 10:06 5.94
230 173 DELPHINE STRUZIK AINÉE 1 13 01:25:56 10:07 5.93
231 164 MARIE-CLAIRE SKIROLE AINÉE 3 3 01:27:08 10:15 5.85